Birdseye, Utah
Current Conditions -  °F | °C
As of 10:15 PM on Monday 20 Oct 2014 (Local Time) from KPVU Reporting Station
Clear Clear  
Wind Chill: 63°   Ceiling: Unl
Heat Index: 63°   Visibility: 10mi
Dew Point: 39°   Wind: 13mph
Humidity: 42%   Direction: 160°SSE
Pressure: 29.95"   Gusts: NA
Location:  39.7497°N, 111.442°W
Report Text: KPVU 210415Z AUTO 16011KT 10SM CLR 17/04 A2995 RMK AO1
Loading
Personal Weather Stations






























Interactive Weather Map
Tropical Storm Tracking
New forecast layout! Learn more

10-Day Weather Forecast

Advertisements
Track Severe Weather on mobile